Eaker Field


Codes: KDUA/DUA
Name: Eaker Field
City: Durant
Country: United States
Elevation: 699 ft.
Wikipedia:

Photos at Eaker Field


   Photos courtesy of SpottingLog. You can add your own sightings and photos by signing up for a free trial today.



No photos found.

Weather at Eaker Field


Time (UTC)DescriptionTempratureWindCloud coverageVisibilityPressureHumidity
18-Apr-2024 00:00Broken Clouds27°C9 mph, S60%10000m1012hPa67%
18-Apr-2024 03:00Broken Clouds23°C9 mph, SE80%10000m1012hPa82%
18-Apr-2024 06:00Overcast Clouds21°C13 mph, SE92%10000m1011hPa95%
18-Apr-2024 09:00Broken Clouds21°C16 mph, S73%10000m1011hPa96%
18-Apr-2024 12:00Broken Clouds19°C9 mph, S71%10000m1011hPa98%
18-Apr-2024 15:00Broken Clouds23°C16 mph, S76%10000m1012hPa83%
18-Apr-2024 18:00Broken Clouds29°C16 mph, SW64%10000m1012hPa66%
18-Apr-2024 21:00Light Rain27°C18 mph, NW54%10000m1011hPa56%
19-Apr-2024 00:00Light Rain20°C16 mph, N56%10000m1014hPa68%
19-Apr-2024 03:00Overcast Clouds15°C18 mph, N100%10000m1017hPa75%
19-Apr-2024 06:00Overcast Clouds13°C16 mph, N100%10000m1019hPa77%
19-Apr-2024 09:00Scattered Clouds11°C16 mph, N28%10000m1018hPa79%
19-Apr-2024 12:00Scattered Clouds11°C11 mph, NE28%10000m1020hPa78%
19-Apr-2024 15:00Broken Clouds14°C13 mph, NE84%10000m1021hPa70%
19-Apr-2024 18:00Overcast Clouds17°C9 mph, E92%10000m1020hPa76%
19-Apr-2024 21:00Overcast Clouds16°C9 mph, E100%10000m1019hPa80%
20-Apr-2024 00:00Light Rain16°C7 mph, E100%10000m1018hPa81%
20-Apr-2024 03:00Light Rain15°C7 mph, NE100%10000m1019hPa86%
20-Apr-2024 06:00Light Rain15°C4 mph, NE100%10000m1019hPa90%
20-Apr-2024 09:00Light Rain14°C9 mph, NE100%10000m1018hPa91%
20-Apr-2024 12:00Light Rain14°C9 mph, NE100%10000m1021hPa96%
20-Apr-2024 15:00Moderate Rain14°C13 mph, NE100%10000m1022hPa97%
20-Apr-2024 18:00Moderate Rain12°C11 mph, E100%10000m1022hPa95%
20-Apr-2024 21:00Light Rain12°C11 mph, NE100%10000m1021hPa94%
21-Apr-2024 00:00Light Rain12°C11 mph, NE100%10000m1021hPa90%
21-Apr-2024 03:00Moderate Rain10°C13 mph, NE100%10000m1021hPa89%
21-Apr-2024 06:00Moderate Rain9°C9 mph, E100%10000m1021hPa93%
21-Apr-2024 09:00Light Rain10°C4 mph, N100%10000m1022hPa90%
21-Apr-2024 12:00Overcast Clouds11°C11 mph, N100%10000m1023hPa87%
21-Apr-2024 15:00Overcast Clouds11°C13 mph, NE98%10000m1024hPa89%
21-Apr-2024 18:00Overcast Clouds12°C11 mph, N99%10000m1024hPa84%
21-Apr-2024 21:00Overcast Clouds11°C9 mph, NE100%10000m1023hPa85%
22-Apr-2024 00:00Overcast Clouds13°C9 mph, NE94%10000m1022hPa78%
22-Apr-2024 03:00Broken Clouds9°C7 mph, N63%10000m1023hPa85%
22-Apr-2024 06:00Scattered Clouds7°C4 mph, N35%10000m1023hPa86%
22-Apr-2024 09:00Clear Sky7°C2 mph, NW2%10000m1021hPa86%
22-Apr-2024 12:00Clear Sky6°C2 mph, N1%10000m1022hPa86%
22-Apr-2024 15:00Clear Sky13°C4 mph, S0%10000m1021hPa75%
22-Apr-2024 18:00Few Clouds16°C9 mph, S24%10000m1019hPa68%
22-Apr-2024 21:00Overcast Clouds17°C9 mph, S100%10000m1017hPa68%